sensor_id;sensor_type;location;lat;lon;timestamp;temperature;humidity
11239;DHT22;5677;48.488;13.436;2023-11-19T00:02:18;9.50;75.60
11239;DHT22;5677;48.488;13.436;2023-11-19T00:04:47;9.50;75.90
11239;DHT22;5677;48.488;13.436;2023-11-19T00:07:14;9.50;76.50
11239;DHT22;5677;48.488;13.436;2023-11-19T00:09:41;9.50;77.10
11239;DHT22;5677;48.488;13.436;2023-11-19T00:12:09;9.50;77.80
11239;DHT22;5677;48.488;13.436;2023-11-19T00:14:35;9.50;78.70
11239;DHT22;5677;48.488;13.436;2023-11-19T00:17:02;9.50;79.60
11239;DHT22;5677;48.488;13.436;2023-11-19T00:19:30;9.50;80.40
11239;DHT22;5677;48.488;13.436;2023-11-19T00:21:58;9.50;81.70
11239;DHT22;5677;48.488;13.436;2023-11-19T00:24:29;9.50;82.50
11239;DHT22;5677;48.488;13.436;2023-11-19T00:26:56;9.50;81.30
11239;DHT22;5677;48.488;13.436;2023-11-19T00:29:23;9.50;81.60
11239;DHT22;5677;48.488;13.436;2023-11-19T00:31:50;9.50;80.90
11239;DHT22;5677;48.488;13.436;2023-11-19T00:34:17;9.50;80.30
11239;DHT22;5677;48.488;13.436;2023-11-19T00:36:47;9.50;81.00
11239;DHT22;5677;48.488;13.436;2023-11-19T00:39:15;9.50;80.00
11239;DHT22;5677;48.488;13.436;2023-11-19T00:41:43;9.50;79.80
11239;DHT22;5677;48.488;13.436;2023-11-19T00:44:11;9.50;79.60
11239;DHT22;5677;48.488;13.436;2023-11-19T00:46:38;9.50;79.70
11239;DHT22;5677;48.488;13.436;2023-11-19T00:49:05;9.50;79.70
11239;DHT22;5677;48.488;13.436;2023-11-19T00:51:31;9.50;79.70
11239;DHT22;5677;48.488;13.436;2023-11-19T00:53:58;9.50;79.90
11239;DHT22;5677;48.488;13.436;2023-11-19T00:56:27;9.50;80.10
11239;DHT22;5677;48.488;13.436;2023-11-19T00:58:54;9.50;80.60
11239;DHT22;5677;48.488;13.436;2023-11-19T01:01:21;9.50;80.70
11239;DHT22;5677;48.488;13.436;2023-11-19T01:03:48;9.50;74.60
11239;DHT22;5677;48.488;13.436;2023-11-19T01:06:15;9.50;74.90
11239;DHT22;5677;48.488;13.436;2023-11-19T01:08:52;9.50;75.10
11239;DHT22;5677;48.488;13.436;2023-11-19T01:11:20;9.50;73.80
11239;DHT22;5677;48.488;13.436;2023-11-19T01:13:49;9.50;72.80
11239;DHT22;5677;48.488;13.436;2023-11-19T01:16:15;9.50;72.60
11239;DHT22;5677;48.488;13.436;2023-11-19T01:18:42;9.50;72.50
11239;DHT22;5677;48.488;13.436;2023-11-19T01:21:09;9.50;72.30
11239;DHT22;5677;48.488;13.436;2023-11-19T01:23:36;9.50;72.30
11239;DHT22;5677;48.488;13.436;2023-11-19T01:26:03;9.50;72.30
11239;DHT22;5677;48.488;13.436;2023-11-19T01:28:31;9.50;72.30
11239;DHT22;5677;48.488;13.436;2023-11-19T01:30:59;9.50;72.20
11239;DHT22;5677;48.488;13.436;2023-11-19T01:33:26;9.50;72.30
11239;DHT22;5677;48.488;13.436;2023-11-19T01:35:53;9.50;72.20
11239;DHT22;5677;48.488;13.436;2023-11-19T01:38:20;9.50;72.20
11239;DHT22;5677;48.488;13.436;2023-11-19T01:40:47;9.50;72.40
11239;DHT22;5677;48.488;13.436;2023-11-19T01:43:32;9.50;72.50
11239;DHT22;5677;48.488;13.436;2023-11-19T01:46:01;9.50;72.60
11239;DHT22;5677;48.488;13.436;2023-11-19T01:48:28;9.50;72.60
11239;DHT22;5677;48.488;13.436;2023-11-19T01:50:56;9.50;72.60
11239;DHT22;5677;48.488;13.436;2023-11-19T01:53:23;9.50;73.40
11239;DHT22;5677;48.488;13.436;2023-11-19T01:55:51;9.50;74.20
11239;DHT22;5677;48.488;13.436;2023-11-19T01:58:18;9.50;73.40
11239;DHT22;5677;48.488;13.436;2023-11-19T02:00:45;9.50;73.50
11239;DHT22;5677;48.488;13.436;2023-11-19T02:03:14;9.50;73.60
11239;DHT22;5677;48.488;13.436;2023-11-19T02:05:41;9.50;73.50
11239;DHT22;5677;48.488;13.436;2023-11-19T02:08:08;9.50;73.60
11239;DHT22;5677;48.488;13.436;2023-11-19T02:10:35;9.40;73.50
11239;DHT22;5677;48.488;13.436;2023-11-19T02:13:02;9.50;73.70
11239;DHT22;5677;48.488;13.436;2023-11-19T02:15:31;9.50;73.70
11239;DHT22;5677;48.488;13.436;2023-11-19T02:18:21;9.50;73.80
11239;DHT22;5677;48.488;13.436;2023-11-19T02:20:48;9.50;73.60
11239;DHT22;5677;48.488;13.436;2023-11-19T02:23:16;9.50;73.70
11239;DHT22;5677;48.488;13.436;2023-11-19T02:25:49;9.50;73.70
11239;DHT22;5677;48.488;13.436;2023-11-19T02:28:18;9.50;73.60
11239;DHT22;5677;48.488;13.436;2023-11-19T02:30:45;9.50;73.70
11239;DHT22;5677;48.488;13.436;2023-11-19T02:33:12;9.40;73.70
11239;DHT22;5677;48.488;13.436;2023-11-19T02:35:40;9.50;73.80
11239;DHT22;5677;48.488;13.436;2023-11-19T02:38:07;9.50;73.90
11239;DHT22;5677;48.488;13.436;2023-11-19T02:40:34;9.40;73.80
11239;DHT22;5677;48.488;13.436;2023-11-19T02:43:01;9.40;73.80
11239;DHT22;5677;48.488;13.436;2023-11-19T02:45:31;9.40;73.80
11239;DHT22;5677;48.488;13.436;2023-11-19T02:47:58;9.40;73.80
11239;DHT22;5677;48.488;13.436;2023-11-19T02:50:27;9.40;73.80
11239;DHT22;5677;48.488;13.436;2023-11-19T02:52:54;9.40;73.80
11239;DHT22;5677;48.488;13.436;2023-11-19T02:55:23;9.40;73.80
11239;DHT22;5677;48.488;13.436;2023-11-19T02:57:50;9.40;73.80
11239;DHT22;5677;48.488;13.436;2023-11-19T03:00:19;9.40;73.80
11239;DHT22;5677;48.488;13.436;2023-11-19T03:02:50;9.40;73.90
11239;DHT22;5677;48.488;13.436;2023-11-19T03:05:25;9.40;73.90
11239;DHT22;5677;48.488;13.436;2023-11-19T03:07:55;9.40;74.70
11239;DHT22;5677;48.488;13.436;2023-11-19T03:10:23;9.40;74.00
11239;DHT22;5677;48.488;13.436;2023-11-19T03:12:49;9.40;74.00
11239;DHT22;5677;48.488;13.436;2023-11-19T03:15:16;9.40;74.20
11239;DHT22;5677;48.488;13.436;2023-11-19T03:17:44;9.40;74.10
11239;DHT22;5677;48.488;13.436;2023-11-19T03:20:12;9.40;74.30
11239;DHT22;5677;48.488;13.436;2023-11-19T03:22:42;9.40;74.50
11239;DHT22;5677;48.488;13.436;2023-11-19T03:25:08;9.40;75.20
11239;DHT22;5677;48.488;13.436;2023-11-19T03:27:36;9.40;75.30
11239;DHT22;5677;48.488;13.436;2023-11-19T03:30:04;9.50;75.40
11239;DHT22;5677;48.488;13.436;2023-11-19T03:32:31;9.40;75.30
11239;DHT22;5677;48.488;13.436;2023-11-19T03:35:00;9.40;75.30
11239;DHT22;5677;48.488;13.436;2023-11-19T03:37:30;9.40;76.00
11239;DHT22;5677;48.488;13.436;2023-11-19T03:39:58;9.50;76.10
11239;DHT22;5677;48.488;13.436;2023-11-19T03:42:25;9.40;76.20
11239;DHT22;5677;48.488;13.436;2023-11-19T03:44:52;9.40;76.90
11239;DHT22;5677;48.488;13.436;2023-11-19T03:47:19;9.40;77.50
11239;DHT22;5677;48.488;13.436;2023-11-19T03:49:48;9.40;77.70
11239;DHT22;5677;48.488;13.436;2023-11-19T03:52:15;9.40;78.70
11239;DHT22;5677;48.488;13.436;2023-11-19T03:54:43;9.40;79.40
11239;DHT22;5677;48.488;13.436;2023-11-19T03:57:11;9.40;80.60
11239;DHT22;5677;48.488;13.436;2023-11-19T03:59:37;9.40;85.80
11239;DHT22;5677;48.488;13.436;2023-11-19T04:02:04;9.40;94.30
11239;DHT22;5677;48.488;13.436;2023-11-19T04:04:32;9.40;77.60
11239;DHT22;5677;48.488;13.436;2023-11-19T04:07:00;9.40;86.50
11239;DHT22;5677;48.488;13.436;2023-11-19T04:09:28;9.40;75.10
11239;DHT22;5677;48.488;13.436;2023-11-19T04:11:56;9.40;71.30
11239;DHT22;5677;48.488;13.436;2023-11-19T04:14:23;9.40;71.30
11239;DHT22;5677;48.488;13.436;2023-11-19T04:16:50;9.40;71.40
11239;DHT22;5677;48.488;13.436;2023-11-19T04:19:16;9.40;71.80
11239;DHT22;5677;48.488;13.436;2023-11-19T04:21:43;9.40;72.10
11239;DHT22;5677;48.488;13.436;2023-11-19T04:24:10;9.40;72.30
11239;DHT22;5677;48.488;13.436;2023-11-19T04:26:40;9.40;72.70
11239;DHT22;5677;48.488;13.436;2023-11-19T04:29:09;9.40;73.50
11239;DHT22;5677;48.488;13.436;2023-11-19T04:31:36;9.40;76.00
11239;DHT22;5677;48.488;13.436;2023-11-19T04:34:03;9.40;78.20
11239;DHT22;5677;48.488;13.436;2023-11-19T04:36:31;9.40;91.40
11239;DHT22;5677;48.488;13.436;2023-11-19T04:38:58;9.40;92.30
11239;DHT22;5677;48.488;13.436;2023-11-19T04:41:25;9.40;91.60
11239;DHT22;5677;48.488;13.436;2023-11-19T04:43:53;9.40;91.10
11239;DHT22;5677;48.488;13.436;2023-11-19T04:46:21;9.40;91.00
11239;DHT22;5677;48.488;13.436;2023-11-19T04:48:49;9.40;90.70
11239;DHT22;5677;48.488;13.436;2023-11-19T04:51:15;9.40;90.30
11239;DHT22;5677;48.488;13.436;2023-11-19T04:53:42;9.40;89.70
11239;DHT22;5677;48.488;13.436;2023-11-19T04:56:10;9.40;89.40
11239;DHT22;5677;48.488;13.436;2023-11-19T04:58:37;9.40;89.30
11239;DHT22;5677;48.488;13.436;2023-11-19T05:01:04;9.40;89.10
11239;DHT22;5677;48.488;13.436;2023-11-19T05:03:32;9.40;89.10
11239;DHT22;5677;48.488;13.436;2023-11-19T05:05:59;9.40;89.30
11239;DHT22;5677;48.488;13.436;2023-11-19T05:08:26;9.40;89.10
11239;DHT22;5677;48.488;13.436;2023-11-19T05:10:53;9.40;88.60
11239;DHT22;5677;48.488;13.436;2023-11-19T05:13:20;9.40;88.60
11239;DHT22;5677;48.488;13.436;2023-11-19T05:15:47;9.40;88.60
11239;DHT22;5677;48.488;13.436;2023-11-19T05:18:14;9.40;88.60
11239;DHT22;5677;48.488;13.436;2023-11-19T05:20:42;9.40;75.70
11239;DHT22;5677;48.488;13.436;2023-11-19T05:23:09;9.40;69.60
11239;DHT22;5677;48.488;13.436;2023-11-19T05:25:36;9.40;69.20
11239;DHT22;5677;48.488;13.436;2023-11-19T05:28:03;9.40;69.10
11239;DHT22;5677;48.488;13.436;2023-11-19T05:30:30;9.40;69.20
11239;DHT22;5677;48.488;13.436;2023-11-19T05:32:57;9.40;69.10
11239;DHT22;5677;48.488;13.436;2023-11-19T05:35:23;9.40;69.30
11239;DHT22;5677;48.488;13.436;2023-11-19T05:37:51;9.40;69.60
11239;DHT22;5677;48.488;13.436;2023-11-19T05:40:18;9.40;70.10
11239;DHT22;5677;48.488;13.436;2023-11-19T05:42:46;9.40;70.30
11239;DHT22;5677;48.488;13.436;2023-11-19T05:45:13;9.40;70.80
11239;DHT22;5677;48.488;13.436;2023-11-19T05:47:40;9.40;71.60
11239;DHT22;5677;48.488;13.436;2023-11-19T05:50:08;9.40;72.60
11239;DHT22;5677;48.488;13.436;2023-11-19T05:52:35;9.40;74.10
11239;DHT22;5677;48.488;13.436;2023-11-19T05:55:04;9.40;77.80
11239;DHT22;5677;48.488;13.436;2023-11-19T05:57:35;9.40;88.30
11239;DHT22;5677;48.488;13.436;2023-11-19T06:00:02;9.40;89.50
11239;DHT22;5677;48.488;13.436;2023-11-19T06:02:30;9.40;89.40
11239;DHT22;5677;48.488;13.436;2023-11-19T06:04:56;9.40;89.60
11239;DHT22;5677;48.488;13.436;2023-11-19T06:07:23;9.40;89.60
11239;DHT22;5677;48.488;13.436;2023-11-19T06:09:50;9.40;89.60
11239;DHT22;5677;48.488;13.436;2023-11-19T06:12:18;9.40;90.10
11239;DHT22;5677;48.488;13.436;2023-11-19T06:14:45;9.40;90.20
11239;DHT22;5677;48.488;13.436;2023-11-19T06:17:12;9.40;90.40
11239;DHT22;5677;48.488;13.436;2023-11-19T06:19:39;9.40;90.60
11239;DHT22;5677;48.488;13.436;2023-11-19T06:22:05;9.40;91.00
11239;DHT22;5677;48.488;13.436;2023-11-19T06:24:32;9.40;91.00
11239;DHT22;5677;48.488;13.436;2023-11-19T06:26:59;9.40;91.20
11239;DHT22;5677;48.488;13.436;2023-11-19T06:29:27;9.40;91.50
11239;DHT22;5677;48.488;13.436;2023-11-19T06:31:54;9.40;91.90
11239;DHT22;5677;48.488;13.436;2023-11-19T06:34:20;9.40;92.20
11239;DHT22;5677;48.488;13.436;2023-11-19T06:36:47;9.40;92.30
11239;DHT22;5677;48.488;13.436;2023-11-19T06:39:14;9.40;92.30
11239;DHT22;5677;48.488;13.436;2023-11-19T06:41:44;9.30;92.40
11239;DHT22;5677;48.488;13.436;2023-11-19T06:44:11;9.40;92.20
11239;DHT22;5677;48.488;13.436;2023-11-19T06:46:40;9.40;92.00
11239;DHT22;5677;48.488;13.436;2023-11-19T06:49:06;9.40;92.10
11239;DHT22;5677;48.488;13.436;2023-11-19T06:51:33;9.40;92.10
11239;DHT22;5677;48.488;13.436;2023-11-19T06:54:00;9.40;92.70
11239;DHT22;5677;48.488;13.436;2023-11-19T06:56:27;9.40;93.30
11239;DHT22;5677;48.488;13.436;2023-11-19T06:58:54;9.40;93.20
11239;DHT22;5677;48.488;13.436;2023-11-19T07:01:21;9.40;93.50
11239;DHT22;5677;48.488;13.436;2023-11-19T07:03:49;9.40;93.60
11239;DHT22;5677;48.488;13.436;2023-11-19T07:06:16;9.40;93.70
11239;DHT22;5677;48.488;13.436;2023-11-19T07:08:44;9.40;93.90
11239;DHT22;5677;48.488;13.436;2023-11-19T07:11:11;9.30;94.70
11239;DHT22;5677;48.488;13.436;2023-11-19T07:13:39;9.30;94.80
11239;DHT22;5677;48.488;13.436;2023-11-19T07:16:07;9.30;95.10
11239;DHT22;5677;48.488;13.436;2023-11-19T07:18:35;9.30;95.40
11239;DHT22;5677;48.488;13.436;2023-11-19T07:21:04;9.30;95.70
11239;DHT22;5677;48.488;13.436;2023-11-19T07:23:31;9.30;96.60
11239;DHT22;5677;48.488;13.436;2023-11-19T07:25:59;9.40;97.80
11239;DHT22;5677;48.488;13.436;2023-11-19T07:28:26;9.30;98.60
11239;DHT22;5677;48.488;13.436;2023-11-19T07:30:54;9.40;99.30
11239;DHT22;5677;48.488;13.436;2023-11-19T07:33:22;9.30;99.90
11239;DHT22;5677;48.488;13.436;2023-11-19T07:35:48;9.30;99.90
11239;DHT22;5677;48.488;13.436;2023-11-19T07:38:17;9.30;99.90
11239;DHT22;5677;48.488;13.436;2023-11-19T07:40:44;9.30;99.90
11239;DHT22;5677;48.488;13.436;2023-11-19T07:43:11;9.40;99.90
11239;DHT22;5677;48.488;13.436;2023-11-19T07:45:38;9.30;99.90
11239;DHT22;5677;48.488;13.436;2023-11-19T07:48:04;9.30;99.90
11239;DHT22;5677;48.488;13.436;2023-11-19T07:50:31;9.40;99.90
11239;DHT22;5677;48.488;13.436;2023-11-19T07:52:58;9.30;99.90
11239;DHT22;5677;48.488;13.436;2023-11-19T07:55:27;9.30;80.00
11239;DHT22;5677;48.488;13.436;2023-11-19T07:57:54;9.30;80.30
11239;DHT22;5677;48.488;13.436;2023-11-19T08:00:21;9.30;80.00
11239;DHT22;5677;48.488;13.436;2023-11-19T08:02:48;9.30;80.10
11239;DHT22;5677;48.488;13.436;2023-11-19T08:05:14;9.30;80.10
11239;DHT22;5677;48.488;13.436;2023-11-19T08:07:41;9.30;80.60
11239;DHT22;5677;48.488;13.436;2023-11-19T08:10:08;9.30;80.90
11239;DHT22;5677;48.488;13.436;2023-11-19T08:12:37;9.30;81.10
11239;DHT22;5677;48.488;13.436;2023-11-19T08:15:05;9.40;81.00
11239;DHT22;5677;48.488;13.436;2023-11-19T08:17:32;9.30;81.00
11239;DHT22;5677;48.488;13.436;2023-11-19T08:19:59;9.30;81.80
11239;DHT22;5677;48.488;13.436;2023-11-19T08:22:26;9.30;80.90
11239;DHT22;5677;48.488;13.436;2023-11-19T08:24:53;9.30;80.10
11239;DHT22;5677;48.488;13.436;2023-11-19T08:27:20;9.30;79.60
11239;DHT22;5677;48.488;13.436;2023-11-19T08:29:53;9.30;79.60
11239;DHT22;5677;48.488;13.436;2023-11-19T08:32:21;9.30;79.90
11239;DHT22;5677;48.488;13.436;2023-11-19T08:34:47;9.30;80.30
11239;DHT22;5677;48.488;13.436;2023-11-19T08:37:14;9.30;80.70
11239;DHT22;5677;48.488;13.436;2023-11-19T08:39:43;9.30;81.20
11239;DHT22;5677;48.488;13.436;2023-11-19T08:42:10;9.40;81.80
11239;DHT22;5677;48.488;13.436;2023-11-19T08:44:36;9.30;82.50
11239;DHT22;5677;48.488;13.436;2023-11-19T08:47:05;9.30;83.20
11239;DHT22;5677;48.488;13.436;2023-11-19T08:49:31;9.30;84.90
11239;DHT22;5677;48.488;13.436;2023-11-19T08:51:58;9.30;85.20
11239;DHT22;5677;48.488;13.436;2023-11-19T08:54:25;9.30;86.90
11239;DHT22;5677;48.488;13.436;2023-11-19T08:56:52;9.30;91.10
11239;DHT22;5677;48.488;13.436;2023-11-19T08:59:18;9.40;94.40
11239;DHT22;5677;48.488;13.436;2023-11-19T09:01:45;9.30;92.00
11239;DHT22;5677;48.488;13.436;2023-11-19T09:04:13;9.30;76.70
11239;DHT22;5677;48.488;13.436;2023-11-19T09:06:41;9.40;70.60
11239;DHT22;5677;48.488;13.436;2023-11-19T09:09:09;9.40;69.60
11239;DHT22;5677;48.488;13.436;2023-11-19T09:11:36;9.30;68.70
11239;DHT22;5677;48.488;13.436;2023-11-19T09:14:03;9.40;68.30
11239;DHT22;5677;48.488;13.436;2023-11-19T09:16:31;9.40;67.90
11239;DHT22;5677;48.488;13.436;2023-11-19T09:18:58;9.30;67.60
11239;DHT22;5677;48.488;13.436;2023-11-19T09:21:27;9.30;67.40
11239;DHT22;5677;48.488;13.436;2023-11-19T09:23:55;9.30;67.40
11239;DHT22;5677;48.488;13.436;2023-11-19T09:26:21;9.30;67.50
11239;DHT22;5677;48.488;13.436;2023-11-19T09:28:48;9.30;67.40
11239;DHT22;5677;48.488;13.436;2023-11-19T09:31:15;9.30;67.10
11239;DHT22;5677;48.488;13.436;2023-11-19T09:33:42;9.30;67.10
11239;DHT22;5677;48.488;13.436;2023-11-19T09:36:09;9.40;67.10
11239;DHT22;5677;48.488;13.436;2023-11-19T09:38:40;9.30;67.30
11239;DHT22;5677;48.488;13.436;2023-11-19T09:41:07;9.30;67.40
11239;DHT22;5677;48.488;13.436;2023-11-19T09:43:35;9.30;67.30
11239;DHT22;5677;48.488;13.436;2023-11-19T09:46:05;9.30;67.30
11239;DHT22;5677;48.488;13.436;2023-11-19T09:48:33;9.30;67.40
11239;DHT22;5677;48.488;13.436;2023-11-19T09:51:00;9.30;67.50
11239;DHT22;5677;48.488;13.436;2023-11-19T09:53:28;9.40;67.60
11239;DHT22;5677;48.488;13.436;2023-11-19T09:55:56;9.30;67.80
11239;DHT22;5677;48.488;13.436;2023-11-19T09:58:23;9.30;67.90
11239;DHT22;5677;48.488;13.436;2023-11-19T10:00:50;9.30;68.10
11239;DHT22;5677;48.488;13.436;2023-11-19T10:03:18;9.30;68.80
11239;DHT22;5677;48.488;13.436;2023-11-19T10:05:45;9.40;71.00
11239;DHT22;5677;48.488;13.436;2023-11-19T10:08:11;9.40;73.80
11239;DHT22;5677;48.488;13.436;2023-11-19T10:10:39;9.40;73.00
11239;DHT22;5677;48.488;13.436;2023-11-19T10:13:07;9.40;72.80
11239;DHT22;5677;48.488;13.436;2023-11-19T10:15:37;9.40;72.30
11239;DHT22;5677;48.488;13.436;2023-11-19T10:18:04;9.40;71.90
11239;DHT22;5677;48.488;13.436;2023-11-19T10:20:35;9.30;71.80
11239;DHT22;5677;48.488;13.436;2023-11-19T10:23:02;9.40;71.50
11239;DHT22;5677;48.488;13.436;2023-11-19T10:25:29;9.30;71.40
11239;DHT22;5677;48.488;13.436;2023-11-19T10:27:56;9.30;71.00
11239;DHT22;5677;48.488;13.436;2023-11-19T10:30:26;9.40;70.60
11239;DHT22;5677;48.488;13.436;2023-11-19T10:33:03;9.40;70.50
11239;DHT22;5677;48.488;13.436;2023-11-19T10:35:31;9.40;70.50
11239;DHT22;5677;48.488;13.436;2023-11-19T10:37:59;9.30;70.40
11239;DHT22;5677;48.488;13.436;2023-11-19T10:40:38;9.40;70.40
11239;DHT22;5677;48.488;13.436;2023-11-19T10:43:05;9.40;70.60
11239;DHT22;5677;48.488;13.436;2023-11-19T10:45:34;9.30;70.80
11239;DHT22;5677;48.488;13.436;2023-11-19T10:48:02;9.30;71.00
11239;DHT22;5677;48.488;13.436;2023-11-19T10:50:30;9.40;70.90
11239;DHT22;5677;48.488;13.436;2023-11-19T10:52:57;9.30;70.80
11239;DHT22;5677;48.488;13.436;2023-11-19T10:55:28;9.40;70.80
11239;DHT22;5677;48.488;13.436;2023-11-19T10:57:59;9.40;70.70
11239;DHT22;5677;48.488;13.436;2023-11-19T11:00:27;9.40;70.60
11239;DHT22;5677;48.488;13.436;2023-11-19T11:03:00;9.40;70.80
11239;DHT22;5677;48.488;13.436;2023-11-19T11:05:29;9.40;71.20
11239;DHT22;5677;48.488;13.436;2023-11-19T11:07:58;9.40;71.70
11239;DHT22;5677;48.488;13.436;2023-11-19T11:10:26;9.40;72.00
11239;DHT22;5677;48.488;13.436;2023-11-19T11:12:56;9.40;72.00
11239;DHT22;5677;48.488;13.436;2023-11-19T11:15:27;9.40;71.60
11239;DHT22;5677;48.488;13.436;2023-11-19T11:17:59;9.40;70.90
11239;DHT22;5677;48.488;13.436;2023-11-19T11:20:27;9.40;70.80
11239;DHT22;5677;48.488;13.436;2023-11-19T11:23:22;9.40;71.10
11239;DHT22;5677;48.488;13.436;2023-11-19T11:26:03;9.40;71.40
11239;DHT22;5677;48.488;13.436;2023-11-19T11:28:41;9.40;71.60
11239;DHT22;5677;48.488;13.436;2023-11-19T11:31:15;9.40;71.70
11239;DHT22;5677;48.488;13.436;2023-11-19T11:34:08;9.40;71.80
11239;DHT22;5677;48.488;13.436;2023-11-19T11:36:46;9.40;72.30
11239;DHT22;5677;48.488;13.436;2023-11-19T11:39:16;9.40;72.80
11239;DHT22;5677;48.488;13.436;2023-11-19T11:41:42;9.40;74.10
11239;DHT22;5677;48.488;13.436;2023-11-19T11:44:10;9.40;73.30
11239;DHT22;5677;48.488;13.436;2023-11-19T11:46:55;9.40;74.20
11239;DHT22;5677;48.488;13.436;2023-11-19T11:49:28;9.40;68.10
11239;DHT22;5677;48.488;13.436;2023-11-19T11:52:01;9.40;66.90
11239;DHT22;5677;48.488;13.436;2023-11-19T11:54:30;9.40;66.80
11239;DHT22;5677;48.488;13.436;2023-11-19T11:57:06;9.40;66.70
11239;DHT22;5677;48.488;13.436;2023-11-19T11:59:51;9.40;66.80
11239;DHT22;5677;48.488;13.436;2023-11-19T12:02:19;9.40;66.90
11239;DHT22;5677;48.488;13.436;2023-11-19T12:04:52;9.40;66.90
11239;DHT22;5677;48.488;13.436;2023-11-19T12:07:20;9.40;66.90
11239;DHT22;5677;48.488;13.436;2023-11-19T12:09:49;9.40;66.90
11239;DHT22;5677;48.488;13.436;2023-11-19T12:12:22;9.40;66.90
11239;DHT22;5677;48.488;13.436;2023-11-19T12:15:04;9.40;67.00
11239;DHT22;5677;48.488;13.436;2023-11-19T12:17:43;9.40;67.00
11239;DHT22;5677;48.488;13.436;2023-11-19T12:20:16;9.40;67.20
11239;DHT22;5677;48.488;13.436;2023-11-19T12:22:45;9.40;67.20
11239;DHT22;5677;48.488;13.436;2023-11-19T12:25:13;9.40;67.40
11239;DHT22;5677;48.488;13.436;2023-11-19T12:27:43;9.40;67.60
11239;DHT22;5677;48.488;13.436;2023-11-19T12:30:10;9.40;67.80
11239;DHT22;5677;48.488;13.436;2023-11-19T12:32:38;9.40;67.90
11239;DHT22;5677;48.488;13.436;2023-11-19T12:35:06;9.40;68.00
11239;DHT22;5677;48.488;13.436;2023-11-19T12:37:40;9.40;68.00
11239;DHT22;5677;48.488;13.436;2023-11-19T12:40:17;9.40;68.10
11239;DHT22;5677;48.488;13.436;2023-11-19T12:42:44;9.40;68.10
11239;DHT22;5677;48.488;13.436;2023-11-19T12:45:11;9.50;68.10
11239;DHT22;5677;48.488;13.436;2023-11-19T12:47:39;9.50;68.00
11239;DHT22;5677;48.488;13.436;2023-11-19T12:50:06;9.50;67.80
11239;DHT22;5677;48.488;13.436;2023-11-19T12:52:34;9.50;67.80
11239;DHT22;5677;48.488;13.436;2023-11-19T12:55:02;9.50;67.80
11239;DHT22;5677;48.488;13.436;2023-11-19T12:57:37;9.50;67.90
11239;DHT22;5677;48.488;13.436;2023-11-19T13:00:04;9.50;67.90
11239;DHT22;5677;48.488;13.436;2023-11-19T13:02:47;9.50;67.90
11239;DHT22;5677;48.488;13.436;2023-11-19T13:05:25;9.50;68.00
11239;DHT22;5677;48.488;13.436;2023-11-19T13:07:58;9.50;68.00
11239;DHT22;5677;48.488;13.436;2023-11-19T13:10:27;9.40;67.90
11239;DHT22;5677;48.488;13.436;2023-11-19T13:13:04;9.40;67.90
11239;DHT22;5677;48.488;13.436;2023-11-19T13:15:31;9.40;67.90
11239;DHT22;5677;48.488;13.436;2023-11-19T13:17:58;9.40;67.90
11239;DHT22;5677;48.488;13.436;2023-11-19T13:20:25;9.40;67.90
11239;DHT22;5677;48.488;13.436;2023-11-19T13:22:57;9.40;68.00
11239;DHT22;5677;48.488;13.436;2023-11-19T13:25:24;9.40;68.00
11239;DHT22;5677;48.488;13.436;2023-11-19T13:27:52;9.40;68.00
11239;DHT22;5677;48.488;13.436;2023-11-19T13:30:20;9.40;68.00
11239;DHT22;5677;48.488;13.436;2023-11-19T13:32:47;9.40;68.00
11239;DHT22;5677;48.488;13.436;2023-11-19T13:35:14;9.40;68.00
11239;DHT22;5677;48.488;13.436;2023-11-19T13:37:43;9.50;68.40
11239;DHT22;5677;48.488;13.436;2023-11-19T13:40:10;9.50;68.00
11239;DHT22;5677;48.488;13.436;2023-11-19T13:42:40;9.50;68.00
11239;DHT22;5677;48.488;13.436;2023-11-19T13:45:09;9.50;68.00
11239;DHT22;5677;48.488;13.436;2023-11-19T13:47:41;9.50;68.00
11239;DHT22;5677;48.488;13.436;2023-11-19T13:50:10;9.50;68.00
11239;DHT22;5677;48.488;13.436;2023-11-19T13:52:37;9.50;68.00
11239;DHT22;5677;48.488;13.436;2023-11-19T13:55:06;9.50;68.00
11239;DHT22;5677;48.488;13.436;2023-11-19T13:57:33;9.50;68.00
11239;DHT22;5677;48.488;13.436;2023-11-19T14:00:00;9.50;68.80
11239;DHT22;5677;48.488;13.436;2023-11-19T14:02:29;9.50;68.00
11239;DHT22;5677;48.488;13.436;2023-11-19T14:04:56;9.50;68.80
11239;DHT22;5677;48.488;13.436;2023-11-19T14:07:23;9.50;68.80
11239;DHT22;5677;48.488;13.436;2023-11-19T14:09:50;9.50;68.10
11239;DHT22;5677;48.488;13.436;2023-11-19T14:12:16;9.50;68.10
11239;DHT22;5677;48.488;13.436;2023-11-19T14:14:43;9.50;68.10
11239;DHT22;5677;48.488;13.436;2023-11-19T14:17:10;9.50;68.10
11239;DHT22;5677;48.488;13.436;2023-11-19T14:19:39;9.50;68.10
11239;DHT22;5677;48.488;13.436;2023-11-19T14:22:06;9.50;68.10
11239;DHT22;5677;48.488;13.436;2023-11-19T14:24:34;9.50;68.10
11239;DHT22;5677;48.488;13.436;2023-11-19T14:27:00;9.50;68.10
11239;DHT22;5677;48.488;13.436;2023-11-19T14:29:27;9.50;68.20
11239;DHT22;5677;48.488;13.436;2023-11-19T14:31:55;9.50;68.10
11239;DHT22;5677;48.488;13.436;2023-11-19T14:34:22;9.50;68.10
11239;DHT22;5677;48.488;13.436;2023-11-19T14:36:51;9.50;68.10
11239;DHT22;5677;48.488;13.436;2023-11-19T14:39:19;9.50;68.10
11239;DHT22;5677;48.488;13.436;2023-11-19T14:41:46;9.50;68.10
11239;DHT22;5677;48.488;13.436;2023-11-19T14:44:13;9.50;68.10
11239;DHT22;5677;48.488;13.436;2023-11-19T14:46:40;9.50;68.10
11239;DHT22;5677;48.488;13.436;2023-11-19T14:49:07;9.50;68.00
11239;DHT22;5677;48.488;13.436;2023-11-19T14:51:35;9.50;68.00
11239;DHT22;5677;48.488;13.436;2023-11-19T14:54:04;9.50;68.00
11239;DHT22;5677;48.488;13.436;2023-11-19T14:56:30;9.50;68.10
11239;DHT22;5677;48.488;13.436;2023-11-19T14:58:57;9.50;68.90
11239;DHT22;5677;48.488;13.436;2023-11-19T15:01:24;9.50;68.10
11239;DHT22;5677;48.488;13.436;2023-11-19T15:03:51;9.50;68.10
11239;DHT22;5677;48.488;13.436;2023-11-19T15:06:18;9.50;68.10
11239;DHT22;5677;48.488;13.436;2023-11-19T15:08:44;9.50;68.20
11239;DHT22;5677;48.488;13.436;2023-11-19T15:11:12;9.50;68.20
11239;DHT22;5677;48.488;13.436;2023-11-19T15:13:39;9.50;68.20
11239;DHT22;5677;48.488;13.436;2023-11-19T15:16:08;9.50;68.20
11239;DHT22;5677;48.488;13.436;2023-11-19T15:18:36;9.50;68.20
11239;DHT22;5677;48.488;13.436;2023-11-19T15:21:03;9.50;68.20
11239;DHT22;5677;48.488;13.436;2023-11-19T15:23:30;9.50;68.10
11239;DHT22;5677;48.488;13.436;2023-11-19T15:25:57;9.50;68.20
11239;DHT22;5677;48.488;13.436;2023-11-19T15:28:25;9.50;68.20
11239;DHT22;5677;48.488;13.436;2023-11-19T15:30:52;9.50;68.10
11239;DHT22;5677;48.488;13.436;2023-11-19T15:33:18;9.50;68.20
11239;DHT22;5677;48.488;13.436;2023-11-19T15:35:45;9.50;68.20
11239;DHT22;5677;48.488;13.436;2023-11-19T15:38:12;9.50;68.20
11239;DHT22;5677;48.488;13.436;2023-11-19T15:40:39;9.50;68.20
11239;DHT22;5677;48.488;13.436;2023-11-19T15:43:08;9.50;68.30
11239;DHT22;5677;48.488;13.436;2023-11-19T15:45:36;9.50;68.30
11239;DHT22;5677;48.488;13.436;2023-11-19T15:48:05;9.50;68.30
11239;DHT22;5677;48.488;13.436;2023-11-19T15:50:32;9.50;68.30
11239;DHT22;5677;48.488;13.436;2023-11-19T15:52:59;9.50;68.40